sensor_id;sensor_type;location;lat;lon;timestamp;P1;durP1;ratioP1;P2;durP2;ratioP2
78772;SDS011;68111;44.728;11.290;2023-07-30T00:01:56;8.25;;;3.63;;
78772;SDS011;68111;44.728;11.290;2023-07-30T00:04:23;7.57;;;3.88;;
78772;SDS011;68111;44.728;11.290;2023-07-30T00:06:49;7.35;;;3.63;;
78772;SDS011;68111;44.728;11.290;2023-07-30T00:09:16;10.45;;;3.80;;
78772;SDS011;68111;44.728;11.290;2023-07-30T00:11:43;9.55;;;3.70;;
78772;SDS011;68111;44.728;11.290;2023-07-30T00:14:09;5.45;;;3.50;;
78772;SDS011;68111;44.728;11.290;2023-07-30T00:16:36;8.23;;;4.07;;
78772;SDS011;68111;44.728;11.290;2023-07-30T00:19:03;7.53;;;3.30;;
78772;SDS011;68111;44.728;11.290;2023-07-30T00:21:30;8.82;;;3.70;;
78772;SDS011;68111;44.728;11.290;2023-07-30T00:23:57;8.38;;;3.42;;
78772;SDS011;68111;44.728;11.290;2023-07-30T00:26:24;9.57;;;3.53;;
78772;SDS011;68111;44.728;11.290;2023-07-30T00:28:52;7.32;;;3.30;;
78772;SDS011;68111;44.728;11.290;2023-07-30T00:31:19;6.05;;;3.33;;
78772;SDS011;68111;44.728;11.290;2023-07-30T00:33:46;7.68;;;3.22;;
78772;SDS011;68111;44.728;11.290;2023-07-30T00:36:13;7.55;;;3.33;;
78772;SDS011;68111;44.728;11.290;2023-07-30T00:38:39;6.45;;;3.13;;
78772;SDS011;68111;44.728;11.290;2023-07-30T00:41:06;6.13;;;3.25;;
78772;SDS011;68111;44.728;11.290;2023-07-30T00:43:33;6.70;;;3.20;;
78772;SDS011;68111;44.728;11.290;2023-07-30T00:45:59;6.55;;;3.58;;
78772;SDS011;68111;44.728;11.290;2023-07-30T00:48:26;6.28;;;3.30;;
78772;SDS011;68111;44.728;11.290;2023-07-30T00:50:53;6.85;;;2.92;;
78772;SDS011;68111;44.728;11.290;2023-07-30T00:53:20;5.15;;;2.83;;
78772;SDS011;68111;44.728;11.290;2023-07-30T00:55:49;7.00;;;3.00;;
78772;SDS011;68111;44.728;11.290;2023-07-30T00:58:16;7.65;;;2.95;;
78772;SDS011;68111;44.728;11.290;2023-07-30T01:00:44;5.22;;;2.90;;
78772;SDS011;68111;44.728;11.290;2023-07-30T01:03:11;5.68;;;2.65;;
78772;SDS011;68111;44.728;11.290;2023-07-30T01:05:38;5.03;;;2.42;;
78772;SDS011;68111;44.728;11.290;2023-07-30T01:08:05;3.75;;;2.42;;
78772;SDS011;68111;44.728;11.290;2023-07-30T01:10:32;5.57;;;2.40;;
78772;SDS011;68111;44.728;11.290;2023-07-30T01:12:59;5.93;;;2.83;;
78772;SDS011;68111;44.728;11.290;2023-07-30T01:15:30;4.50;;;2.50;;
78772;SDS011;68111;44.728;11.290;2023-07-30T01:17:57;7.60;;;2.55;;
78772;SDS011;68111;44.728;11.290;2023-07-30T01:20:29;5.65;;;2.40;;
78772;SDS011;68111;44.728;11.290;2023-07-30T01:23:00;3.88;;;2.40;;
78772;SDS011;68111;44.728;11.290;2023-07-30T01:25:28;4.18;;;2.35;;
78772;SDS011;68111;44.728;11.290;2023-07-30T01:27:58;9.40;;;2.37;;
78772;SDS011;68111;44.728;11.290;2023-07-30T01:30:28;6.32;;;2.45;;
78772;SDS011;68111;44.728;11.290;2023-07-30T01:32:58;4.78;;;2.33;;
78772;SDS011;68111;44.728;11.290;2023-07-30T01:35:26;5.20;;;2.35;;
78772;SDS011;68111;44.728;11.290;2023-07-30T01:37:54;6.97;;;2.50;;
78772;SDS011;68111;44.728;11.290;2023-07-30T01:40:21;4.15;;;2.17;;
78772;SDS011;68111;44.728;11.290;2023-07-30T01:42:49;5.07;;;2.17;;
78772;SDS011;68111;44.728;11.290;2023-07-30T01:45:16;4.45;;;2.45;;
78772;SDS011;68111;44.728;11.290;2023-07-30T01:47:44;4.00;;;2.22;;
78772;SDS011;68111;44.728;11.290;2023-07-30T01:50:10;6.07;;;2.40;;
78772;SDS011;68111;44.728;11.290;2023-07-30T01:52:37;4.82;;;2.90;;
78772;SDS011;68111;44.728;11.290;2023-07-30T01:55:04;5.65;;;2.28;;
78772;SDS011;68111;44.728;11.290;2023-07-30T01:57:31;7.00;;;3.00;;
78772;SDS011;68111;44.728;11.290;2023-07-30T01:59:58;5.85;;;2.72;;
78772;SDS011;68111;44.728;11.290;2023-07-30T02:02:25;6.63;;;2.75;;
78772;SDS011;68111;44.728;11.290;2023-07-30T02:04:52;5.47;;;2.38;;
78772;SDS011;68111;44.728;11.290;2023-07-30T02:07:19;5.28;;;2.88;;
78772;SDS011;68111;44.728;11.290;2023-07-30T02:09:45;6.53;;;2.95;;
78772;SDS011;68111;44.728;11.290;2023-07-30T02:12:12;7.32;;;3.40;;
78772;SDS011;68111;44.728;11.290;2023-07-30T02:14:39;5.68;;;3.28;;
78772;SDS011;68111;44.728;11.290;2023-07-30T02:17:05;7.28;;;3.25;;
78772;SDS011;68111;44.728;11.290;2023-07-30T02:19:32;9.45;;;3.42;;
78772;SDS011;68111;44.728;11.290;2023-07-30T02:21:59;8.02;;;3.78;;
78772;SDS011;68111;44.728;11.290;2023-07-30T02:24:26;8.43;;;3.08;;
78772;SDS011;68111;44.728;11.290;2023-07-30T02:26:53;7.13;;;2.90;;
78772;SDS011;68111;44.728;11.290;2023-07-30T02:29:20;7.15;;;3.05;;
78772;SDS011;68111;44.728;11.290;2023-07-30T02:31:46;7.95;;;2.75;;
78772;SDS011;68111;44.728;11.290;2023-07-30T02:34:13;5.28;;;2.40;;
78772;SDS011;68111;44.728;11.290;2023-07-30T02:36:43;7.15;;;2.28;;
78772;SDS011;68111;44.728;11.290;2023-07-30T02:39:09;5.30;;;2.45;;
78772;SDS011;68111;44.728;11.290;2023-07-30T02:41:36;6.22;;;2.53;;
78772;SDS011;68111;44.728;11.290;2023-07-30T02:44:03;5.10;;;2.25;;
78772;SDS011;68111;44.728;11.290;2023-07-30T02:46:30;4.47;;;2.10;;
78772;SDS011;68111;44.728;11.290;2023-07-30T02:48:57;5.18;;;1.88;;
78772;SDS011;68111;44.728;11.290;2023-07-30T02:51:24;5.50;;;1.88;;
78772;SDS011;68111;44.728;11.290;2023-07-30T02:53:57;4.57;;;1.90;;
78772;SDS011;68111;44.728;11.290;2023-07-30T02:56:25;4.35;;;1.63;;
78772;SDS011;68111;44.728;11.290;2023-07-30T02:58:52;6.03;;;1.60;;
78772;SDS011;68111;44.728;11.290;2023-07-30T03:01:19;8.18;;;1.80;;
78772;SDS011;68111;44.728;11.290;2023-07-30T03:03:46;3.65;;;1.80;;
78772;SDS011;68111;44.728;11.290;2023-07-30T03:06:13;7.70;;;1.92;;
78772;SDS011;68111;44.728;11.290;2023-07-30T03:08:40;3.30;;;1.60;;
78772;SDS011;68111;44.728;11.290;2023-07-30T03:11:07;4.00;;;1.40;;
78772;SDS011;68111;44.728;11.290;2023-07-30T03:13:34;5.32;;;1.80;;
78772;SDS011;68111;44.728;11.290;2023-07-30T03:16:00;3.25;;;1.77;;
78772;SDS011;68111;44.728;11.290;2023-07-30T03:18:27;3.15;;;1.67;;
78772;SDS011;68111;44.728;11.290;2023-07-30T03:20:58;4.43;;;1.90;;
78772;SDS011;68111;44.728;11.290;2023-07-30T03:23:26;3.25;;;1.75;;
78772;SDS011;68111;44.728;11.290;2023-07-30T03:25:53;4.40;;;2.00;;
78772;SDS011;68111;44.728;11.290;2023-07-30T03:28:20;6.38;;;2.20;;
78772;SDS011;68111;44.728;11.290;2023-07-30T03:30:47;3.08;;;2.03;;
78772;SDS011;68111;44.728;11.290;2023-07-30T03:33:14;7.28;;;2.13;;
78772;SDS011;68111;44.728;11.290;2023-07-30T03:35:41;4.38;;;2.13;;
78772;SDS011;68111;44.728;11.290;2023-07-30T03:38:07;5.25;;;2.20;;
78772;SDS011;68111;44.728;11.290;2023-07-30T03:40:34;5.78;;;2.28;;
78772;SDS011;68111;44.728;11.290;2023-07-30T03:43:20;4.93;;;2.05;;
78772;SDS011;68111;44.728;11.290;2023-07-30T03:45:46;3.67;;;2.20;;
78772;SDS011;68111;44.728;11.290;2023-07-30T03:48:15;4.35;;;2.05;;
78772;SDS011;68111;44.728;11.290;2023-07-30T03:50:42;4.82;;;1.80;;
78772;SDS011;68111;44.728;11.290;2023-07-30T03:53:08;1.92;;;1.70;;
78772;SDS011;68111;44.728;11.290;2023-07-30T03:55:35;4.32;;;2.10;;
78772;SDS011;68111;44.728;11.290;2023-07-30T03:58:02;3.05;;;1.92;;
78772;SDS011;68111;44.728;11.290;2023-07-30T04:00:29;4.93;;;2.30;;
78772;SDS011;68111;44.728;11.290;2023-07-30T04:02:56;3.78;;;2.20;;
78772;SDS011;68111;44.728;11.290;2023-07-30T04:05:22;3.70;;;2.10;;
78772;SDS011;68111;44.728;11.290;2023-07-30T04:07:49;3.03;;;2.10;;
78772;SDS011;68111;44.728;11.290;2023-07-30T04:10:16;7.07;;;2.42;;
78772;SDS011;68111;44.728;11.290;2023-07-30T04:12:43;5.43;;;2.80;;
78772;SDS011;68111;44.728;11.290;2023-07-30T04:15:09;6.10;;;2.60;;
78772;SDS011;68111;44.728;11.290;2023-07-30T04:17:36;4.70;;;2.60;;
78772;SDS011;68111;44.728;11.290;2023-07-30T04:20:04;3.45;;;2.30;;
78772;SDS011;68111;44.728;11.290;2023-07-30T04:22:31;6.28;;;2.70;;
78772;SDS011;68111;44.728;11.290;2023-07-30T04:24:58;4.45;;;2.10;;
78772;SDS011;68111;44.728;11.290;2023-07-30T04:27:25;5.30;;;2.20;;
78772;SDS011;68111;44.728;11.290;2023-07-30T04:29:56;3.72;;;2.08;;
78772;SDS011;68111;44.728;11.290;2023-07-30T04:32:23;6.60;;;2.20;;
78772;SDS011;68111;44.728;11.290;2023-07-30T04:34:50;4.75;;;2.20;;
78772;SDS011;68111;44.728;11.290;2023-07-30T04:37:17;4.10;;;2.08;;
78772;SDS011;68111;44.728;11.290;2023-07-30T04:39:44;5.35;;;2.35;;
78772;SDS011;68111;44.728;11.290;2023-07-30T04:42:11;4.90;;;2.10;;
78772;SDS011;68111;44.728;11.290;2023-07-30T04:44:41;5.28;;;2.03;;
78772;SDS011;68111;44.728;11.290;2023-07-30T04:47:13;5.35;;;2.00;;
78772;SDS011;68111;44.728;11.290;2023-07-30T04:49:40;5.00;;;2.10;;
78772;SDS011;68111;44.728;11.290;2023-07-30T04:52:07;6.68;;;2.38;;
78772;SDS011;68111;44.728;11.290;2023-07-30T04:54:34;4.28;;;2.08;;
78772;SDS011;68111;44.728;11.290;2023-07-30T04:57:04;5.57;;;2.60;;
78772;SDS011;68111;44.728;11.290;2023-07-30T04:59:32;4.45;;;2.28;;
78772;SDS011;68111;44.728;11.290;2023-07-30T05:02:00;4.15;;;2.17;;
78772;SDS011;68111;44.728;11.290;2023-07-30T05:04:27;9.85;;;2.53;;
78772;SDS011;68111;44.728;11.290;2023-07-30T05:06:54;4.85;;;2.00;;
78772;SDS011;68111;44.728;11.290;2023-07-30T05:09:21;5.38;;;2.13;;
78772;SDS011;68111;44.728;11.290;2023-07-30T05:11:48;4.35;;;2.17;;
78772;SDS011;68111;44.728;11.290;2023-07-30T05:14:14;4.20;;;2.10;;
78772;SDS011;68111;44.728;11.290;2023-07-30T05:16:41;3.85;;;2.30;;
78772;SDS011;68111;44.728;11.290;2023-07-30T05:19:08;2.78;;;1.90;;
78772;SDS011;68111;44.728;11.290;2023-07-30T05:21:35;3.65;;;2.00;;
78772;SDS011;68111;44.728;11.290;2023-07-30T05:24:02;5.68;;;2.10;;
78772;SDS011;68111;44.728;11.290;2023-07-30T05:26:29;4.20;;;1.90;;
78772;SDS011;68111;44.728;11.290;2023-07-30T05:28:56;4.90;;;2.25;;
78772;SDS011;68111;44.728;11.290;2023-07-30T05:31:22;4.75;;;2.20;;
78772;SDS011;68111;44.728;11.290;2023-07-30T05:33:49;4.35;;;2.15;;
78772;SDS011;68111;44.728;11.290;2023-07-30T05:36:16;5.88;;;2.00;;
78772;SDS011;68111;44.728;11.290;2023-07-30T05:38:42;4.03;;;1.95;;
78772;SDS011;68111;44.728;11.290;2023-07-30T05:41:09;4.15;;;2.00;;
78772;SDS011;68111;44.728;11.290;2023-07-30T05:43:36;3.58;;;1.92;;
78772;SDS011;68111;44.728;11.290;2023-07-30T05:46:03;4.40;;;2.47;;
78772;SDS011;68111;44.728;11.290;2023-07-30T05:48:29;5.07;;;2.42;;
78772;SDS011;68111;44.728;11.290;2023-07-30T05:50:56;4.88;;;2.30;;
78772;SDS011;68111;44.728;11.290;2023-07-30T05:53:23;7.68;;;2.50;;
78772;SDS011;68111;44.728;11.290;2023-07-30T05:55:50;5.60;;;3.13;;
78772;SDS011;68111;44.728;11.290;2023-07-30T05:58:17;7.78;;;3.10;;
78772;SDS011;68111;44.728;11.290;2023-07-30T06:00:43;6.00;;;3.08;;
78772;SDS011;68111;44.728;11.290;2023-07-30T06:03:11;10.68;;;3.17;;
78772;SDS011;68111;44.728;11.290;2023-07-30T06:05:41;8.00;;;3.03;;
78772;SDS011;68111;44.728;11.290;2023-07-30T06:08:08;7.45;;;2.95;;
78772;SDS011;68111;44.728;11.290;2023-07-30T06:10:36;5.72;;;2.97;;
78772;SDS011;68111;44.728;11.290;2023-07-30T06:13:03;5.07;;;2.72;;
78772;SDS011;68111;44.728;11.290;2023-07-30T06:15:31;6.90;;;2.75;;
78772;SDS011;68111;44.728;11.290;2023-07-30T06:17:58;6.53;;;2.70;;
78772;SDS011;68111;44.728;11.290;2023-07-30T06:20:25;9.13;;;2.95;;
78772;SDS011;68111;44.728;11.290;2023-07-30T06:22:52;6.75;;;2.45;;
78772;SDS011;68111;44.728;11.290;2023-07-30T06:25:18;5.43;;;2.60;;
78772;SDS011;68111;44.728;11.290;2023-07-30T06:27:45;4.90;;;2.47;;
78772;SDS011;68111;44.728;11.290;2023-07-30T06:30:12;4.50;;;2.17;;
78772;SDS011;68111;44.728;11.290;2023-07-30T06:32:38;5.82;;;2.28;;
78772;SDS011;68111;44.728;11.290;2023-07-30T06:35:05;3.78;;;2.10;;
78772;SDS011;68111;44.728;11.290;2023-07-30T06:37:32;5.95;;;2.13;;
78772;SDS011;68111;44.728;11.290;2023-07-30T06:40:00;4.35;;;2.33;;
78772;SDS011;68111;44.728;11.290;2023-07-30T06:42:27;3.92;;;2.35;;
78772;SDS011;68111;44.728;11.290;2023-07-30T06:44:53;6.18;;;2.10;;
78772;SDS011;68111;44.728;11.290;2023-07-30T06:47:20;2.78;;;1.80;;
78772;SDS011;68111;44.728;11.290;2023-07-30T06:49:47;4.18;;;1.83;;
78772;SDS011;68111;44.728;11.290;2023-07-30T06:52:14;4.50;;;2.17;;
78772;SDS011;68111;44.728;11.290;2023-07-30T06:54:40;4.30;;;2.00;;
78772;SDS011;68111;44.728;11.290;2023-07-30T06:57:07;5.10;;;2.10;;
78772;SDS011;68111;44.728;11.290;2023-07-30T06:59:34;3.35;;;2.05;;
78772;SDS011;68111;44.728;11.290;2023-07-30T07:02:00;4.93;;;2.10;;
78772;SDS011;68111;44.728;11.290;2023-07-30T07:04:27;3.58;;;2.00;;
78772;SDS011;68111;44.728;11.290;2023-07-30T07:06:54;3.35;;;2.08;;
78772;SDS011;68111;44.728;11.290;2023-07-30T07:09:20;5.65;;;2.22;;
78772;SDS011;68111;44.728;11.290;2023-07-30T07:11:47;4.85;;;2.47;;
78772;SDS011;68111;44.728;11.290;2023-07-30T07:14:14;4.30;;;2.10;;
78772;SDS011;68111;44.728;11.290;2023-07-30T07:16:41;4.25;;;2.58;;
78772;SDS011;68111;44.728;11.290;2023-07-30T07:19:07;5.57;;;2.10;;
78772;SDS011;68111;44.728;11.290;2023-07-30T07:21:34;5.50;;;2.40;;
78772;SDS011;68111;44.728;11.290;2023-07-30T07:24:01;3.42;;;1.90;;
78772;SDS011;68111;44.728;11.290;2023-07-30T07:26:28;5.10;;;2.03;;
78772;SDS011;68111;44.728;11.290;2023-07-30T07:28:55;5.28;;;2.30;;
78772;SDS011;68111;44.728;11.290;2023-07-30T07:31:22;3.38;;;2.05;;
78772;SDS011;68111;44.728;11.290;2023-07-30T07:33:49;3.40;;;1.98;;
78772;SDS011;68111;44.728;11.290;2023-07-30T07:36:16;3.70;;;2.03;;
78772;SDS011;68111;44.728;11.290;2023-07-30T07:38:43;3.35;;;1.98;;
78772;SDS011;68111;44.728;11.290;2023-07-30T07:41:13;3.50;;;1.80;;
78772;SDS011;68111;44.728;11.290;2023-07-30T07:43:43;2.08;;;1.60;;
78772;SDS011;68111;44.728;11.290;2023-07-30T07:46:10;4.57;;;1.70;;
78772;SDS011;68111;44.728;11.290;2023-07-30T07:48:43;3.85;;;1.70;;
78772;SDS011;68111;44.728;11.290;2023-07-30T07:53:37;2.85;;;1.60;;
78772;SDS011;68111;44.728;11.290;2023-07-30T07:56:05;4.10;;;1.70;;
78772;SDS011;68111;44.728;11.290;2023-07-30T07:58:32;3.05;;;1.55;;
78772;SDS011;68111;44.728;11.290;2023-07-30T08:00:59;2.92;;;1.77;;
78772;SDS011;68111;44.728;11.290;2023-07-30T08:03:26;4.00;;;1.63;;
78772;SDS011;68111;44.728;11.290;2023-07-30T08:05:53;1.98;;;1.50;;
78772;SDS011;68111;44.728;11.290;2023-07-30T08:08:20;4.38;;;1.83;;
78772;SDS011;68111;44.728;11.290;2023-07-30T08:10:47;3.30;;;1.77;;
78772;SDS011;68111;44.728;11.290;2023-07-30T08:13:14;3.83;;;1.80;;
78772;SDS011;68111;44.728;11.290;2023-07-30T08:15:42;4.18;;;2.25;;
78772;SDS011;68111;44.728;11.290;2023-07-30T08:18:09;3.60;;;1.77;;
78772;SDS011;68111;44.728;11.290;2023-07-30T08:20:36;4.38;;;1.70;;
78772;SDS011;68111;44.728;11.290;2023-07-30T08:23:03;3.70;;;1.65;;
78772;SDS011;68111;44.728;11.290;2023-07-30T08:25:29;2.65;;;1.80;;
78772;SDS011;68111;44.728;11.290;2023-07-30T08:27:56;2.33;;;1.80;;
78772;SDS011;68111;44.728;11.290;2023-07-30T08:30:23;3.13;;;1.60;;
78772;SDS011;68111;44.728;11.290;2023-07-30T08:32:49;2.58;;;1.50;;
78772;SDS011;68111;44.728;11.290;2023-07-30T08:35:16;2.92;;;1.50;;
78772;SDS011;68111;44.728;11.290;2023-07-30T08:37:43;1.98;;;1.50;;
78772;SDS011;68111;44.728;11.290;2023-07-30T08:40:10;2.33;;;1.30;;
78772;SDS011;68111;44.728;11.290;2023-07-30T08:42:37;3.28;;;1.40;;
78772;SDS011;68111;44.728;11.290;2023-07-30T08:45:04;2.55;;;1.50;;
78772;SDS011;68111;44.728;11.290;2023-07-30T08:47:33;4.32;;;1.80;;
78772;SDS011;68111;44.728;11.290;2023-07-30T08:50:01;3.22;;;1.50;;
78772;SDS011;68111;44.728;11.290;2023-07-30T08:52:28;3.38;;;1.75;;
78772;SDS011;68111;44.728;11.290;2023-07-30T08:54:56;2.58;;;1.60;;
78772;SDS011;68111;44.728;11.290;2023-07-30T08:57:24;1.65;;;1.48;;
78772;SDS011;68111;44.728;11.290;2023-07-30T08:59:54;2.20;;;1.30;;
78772;SDS011;68111;44.728;11.290;2023-07-30T09:02:39;2.72;;;1.50;;
78772;SDS011;68111;44.728;11.290;2023-07-30T09:05:10;2.17;;;1.70;;
78772;SDS011;68111;44.728;11.290;2023-07-30T09:07:37;4.72;;;1.70;;
78772;SDS011;68111;44.728;11.290;2023-07-30T09:10:04;5.03;;;2.17;;
78772;SDS011;68111;44.728;11.290;2023-07-30T09:12:34;2.33;;;1.67;;
78772;SDS011;68111;44.728;11.290;2023-07-30T09:15:02;3.33;;;1.60;;
78772;SDS011;68111;44.728;11.290;2023-07-30T09:17:31;3.75;;;1.70;;
78772;SDS011;68111;44.728;11.290;2023-07-30T09:19:59;3.67;;;2.00;;
78772;SDS011;68111;44.728;11.290;2023-07-30T09:22:26;5.43;;;1.77;;
78772;SDS011;68111;44.728;11.290;2023-07-30T09:24:55;3.47;;;1.80;;
78772;SDS011;68111;44.728;11.290;2023-07-30T09:27:23;5.05;;;2.10;;
78772;SDS011;68111;44.728;11.290;2023-07-30T09:29:53;6.50;;;1.88;;
78772;SDS011;68111;44.728;11.290;2023-07-30T09:32:25;3.67;;;1.83;;
78772;SDS011;68111;44.728;11.290;2023-07-30T09:34:53;3.83;;;1.98;;
78772;SDS011;68111;44.728;11.290;2023-07-30T09:37:21;2.75;;;1.73;;
78772;SDS011;68111;44.728;11.290;2023-07-30T09:39:48;3.00;;;1.50;;
78772;SDS011;68111;44.728;11.290;2023-07-30T09:42:15;4.13;;;1.58;;
78772;SDS011;68111;44.728;11.290;2023-07-30T09:44:41;2.95;;;1.70;;
78772;SDS011;68111;44.728;11.290;2023-07-30T09:47:08;3.00;;;1.92;;
78772;SDS011;68111;44.728;11.290;2023-07-30T09:49:37;5.15;;;2.10;;
78772;SDS011;68111;44.728;11.290;2023-07-30T09:52:04;4.65;;;2.30;;
78772;SDS011;68111;44.728;11.290;2023-07-30T09:54:32;3.42;;;1.80;;
78772;SDS011;68111;44.728;11.290;2023-07-30T09:56:59;3.55;;;2.28;;
78772;SDS011;68111;44.728;11.290;2023-07-30T09:59:26;3.53;;;2.17;;
78772;SDS011;68111;44.728;11.290;2023-07-30T10:01:53;2.83;;;2.00;;
78772;SDS011;68111;44.728;11.290;2023-07-30T10:04:22;3.20;;;2.00;;
78772;SDS011;68111;44.728;11.290;2023-07-30T10:07:00;3.40;;;2.15;;
78772;SDS011;68111;44.728;11.290;2023-07-30T10:09:32;4.18;;;1.95;;
78772;SDS011;68111;44.728;11.290;2023-07-30T10:12:04;2.22;;;1.75;;
78772;SDS011;68111;44.728;11.290;2023-07-30T10:14:32;5.57;;;2.60;;
78772;SDS011;68111;44.728;11.290;2023-07-30T10:16:59;2.58;;;1.85;;
78772;SDS011;68111;44.728;11.290;2023-07-30T10:19:27;3.08;;;2.00;;
78772;SDS011;68111;44.728;11.290;2023-07-30T10:22:19;4.00;;;1.80;;
78772;SDS011;68111;44.728;11.290;2023-07-30T10:25:00;3.33;;;1.95;;
78772;SDS011;68111;44.728;11.290;2023-07-30T10:27:38;4.50;;;2.00;;
78772;SDS011;68111;44.728;11.290;2023-07-30T10:32:41;3.78;;;1.60;;
78772;SDS011;68111;44.728;11.290;2023-07-30T10:38:19;2.85;;;1.85;;
78772;SDS011;68111;44.728;11.290;2023-07-30T10:43:36;4.15;;;1.67;;
78772;SDS011;68111;44.728;11.290;2023-07-30T10:46:02;3.25;;;1.70;;
78772;SDS011;68111;44.728;11.290;2023-07-30T10:48:33;3.58;;;2.00;;
78772;SDS011;68111;44.728;11.290;2023-07-30T10:51:02;2.50;;;1.77;;
78772;SDS011;68111;44.728;11.290;2023-07-30T10:53:30;2.85;;;1.80;;
78772;SDS011;68111;44.728;11.290;2023-07-30T10:55:58;3.55;;;1.90;;
78772;SDS011;68111;44.728;11.290;2023-07-30T10:58:28;3.05;;;1.60;;
78772;SDS011;68111;44.728;11.290;2023-07-30T11:00:56;3.28;;;1.90;;
78772;SDS011;68111;44.728;11.290;2023-07-30T11:03:26;3.70;;;2.10;;
78772;SDS011;68111;44.728;11.290;2023-07-30T11:05:54;1.83;;;1.63;;
78772;SDS011;68111;44.728;11.290;2023-07-30T11:08:30;4.38;;;1.95;;
78772;SDS011;68111;44.728;11.290;2023-07-30T11:11:03;2.30;;;1.80;;
78772;SDS011;68111;44.728;11.290;2023-07-30T11:13:37;3.75;;;1.85;;
78772;SDS011;68111;44.728;11.290;2023-07-30T11:16:06;2.00;;;1.65;;
78772;SDS011;68111;44.728;11.290;2023-07-30T11:18:33;2.58;;;1.70;;
78772;SDS011;68111;44.728;11.290;2023-07-30T11:21:02;2.90;;;2.00;;
78772;SDS011;68111;44.728;11.290;2023-07-30T11:23:33;4.63;;;2.00;;
78772;SDS011;68111;44.728;11.290;2023-07-30T11:26:01;5.88;;;1.90;;
78772;SDS011;68111;44.728;11.290;2023-07-30T11:30:57;3.55;;;1.90;;
78772;SDS011;68111;44.728;11.290;2023-07-30T11:33:29;2.75;;;1.98;;
78772;SDS011;68111;44.728;11.290;2023-07-30T11:35:57;2.97;;;1.80;;
78772;SDS011;68111;44.728;11.290;2023-07-30T11:38:24;2.83;;;1.70;;
78772;SDS011;68111;44.728;11.290;2023-07-30T11:40:52;2.22;;;1.67;;
78772;SDS011;68111;44.728;11.290;2023-07-30T11:43:20;2.88;;;1.80;;
78772;SDS011;68111;44.728;11.290;2023-07-30T11:45:48;3.50;;;2.15;;
78772;SDS011;68111;44.728;11.290;2023-07-30T11:48:15;4.63;;;2.05;;
78772;SDS011;68111;44.728;11.290;2023-07-30T11:50:43;3.10;;;1.90;;
78772;SDS011;68111;44.728;11.290;2023-07-30T11:53:13;5.38;;;2.15;;
78772;SDS011;68111;44.728;11.290;2023-07-30T11:55:41;4.03;;;1.70;;
78772;SDS011;68111;44.728;11.290;2023-07-30T11:58:09;4.00;;;2.42;;
78772;SDS011;68111;44.728;11.290;2023-07-30T12:00:37;4.13;;;1.85;;
78772;SDS011;68111;44.728;11.290;2023-07-30T12:03:05;4.90;;;2.60;;
78772;SDS011;68111;44.728;11.290;2023-07-30T12:05:37;4.38;;;2.13;;
78772;SDS011;68111;44.728;11.290;2023-07-30T12:08:06;2.80;;;1.80;;
78772;SDS011;68111;44.728;11.290;2023-07-30T12:10:40;4.15;;;1.98;;
78772;SDS011;68111;44.728;11.290;2023-07-30T12:13:20;3.78;;;2.10;;
78772;SDS011;68111;44.728;11.290;2023-07-30T12:15:53;4.70;;;2.20;;
78772;SDS011;68111;44.728;11.290;2023-07-30T12:18:21;3.15;;;2.08;;
78772;SDS011;68111;44.728;11.290;2023-07-30T12:20:48;4.55;;;1.90;;
78772;SDS011;68111;44.728;11.290;2023-07-30T12:23:17;3.20;;;2.25;;
78772;SDS011;68111;44.728;11.290;2023-07-30T12:25:44;3.92;;;2.10;;
78772;SDS011;68111;44.728;11.290;2023-07-30T12:28:12;2.88;;;2.10;;
78772;SDS011;68111;44.728;11.290;2023-07-30T12:30:39;3.67;;;1.90;;
78772;SDS011;68111;44.728;11.290;2023-07-30T12:33:06;2.95;;;1.95;;
78772;SDS011;68111;44.728;11.290;2023-07-30T12:35:33;3.90;;;1.90;;
78772;SDS011;68111;44.728;11.290;2023-07-30T12:38:00;4.32;;;1.90;;
78772;SDS011;68111;44.728;11.290;2023-07-30T12:40:27;3.80;;;2.10;;
78772;SDS011;68111;44.728;11.290;2023-07-30T12:42:55;2.67;;;2.05;;
78772;SDS011;68111;44.728;11.290;2023-07-30T12:45:22;3.25;;;1.90;;
78772;SDS011;68111;44.728;11.290;2023-07-30T12:47:49;3.45;;;2.00;;
78772;SDS011;68111;44.728;11.290;2023-07-30T12:50:16;3.28;;;2.00;;
78772;SDS011;68111;44.728;11.290;2023-07-30T12:52:43;4.47;;;2.33;;
78772;SDS011;68111;44.728;11.290;2023-07-30T12:55:10;5.10;;;2.10;;
78772;SDS011;68111;44.728;11.290;2023-07-30T12:57:36;3.15;;;1.90;;
78772;SDS011;68111;44.728;11.290;2023-07-30T13:00:03;5.43;;;2.20;;
78772;SDS011;68111;44.728;11.290;2023-07-30T13:02:31;5.53;;;2.15;;
78772;SDS011;68111;44.728;11.290;2023-07-30T13:05:01;3.00;;;2.10;;
78772;SDS011;68111;44.728;11.290;2023-07-30T13:07:27;5.22;;;2.35;;
78772;SDS011;68111;44.728;11.290;2023-07-30T13:10:04;3.53;;;2.33;;
78772;SDS011;68111;44.728;11.290;2023-07-30T13:12:34;3.33;;;2.00;;
78772;SDS011;68111;44.728;11.290;2023-07-30T13:15:02;3.30;;;2.08;;
78772;SDS011;68111;44.728;11.290;2023-07-30T13:17:29;3.03;;;2.03;;
78772;SDS011;68111;44.728;11.290;2023-07-30T13:19:56;5.00;;;2.17;;
78772;SDS011;68111;44.728;11.290;2023-07-30T13:22:23;4.20;;;1.90;;
78772;SDS011;68111;44.728;11.290;2023-07-30T13:24:50;4.57;;;1.90;;
78772;SDS011;68111;44.728;11.290;2023-07-30T13:27:17;3.20;;;2.00;;
78772;SDS011;68111;44.728;11.290;2023-07-30T13:29:44;2.00;;;1.80;;
78772;SDS011;68111;44.728;11.290;2023-07-30T13:32:11;3.60;;;2.10;;
78772;SDS011;68111;44.728;11.290;2023-07-30T13:34:38;4.30;;;2.20;;
78772;SDS011;68111;44.728;11.290;2023-07-30T13:37:05;2.35;;;2.10;;
78772;SDS011;68111;44.728;11.290;2023-07-30T13:39:32;2.67;;;1.98;;
78772;SDS011;68111;44.728;11.290;2023-07-30T13:41:59;4.13;;;1.70;;
78772;SDS011;68111;44.728;11.290;2023-07-30T13:44:25;3.35;;;2.00;;
78772;SDS011;68111;44.728;11.290;2023-07-30T13:46:52;3.17;;;2.00;;
78772;SDS011;68111;44.728;11.290;2023-07-30T13:49:20;2.97;;;2.15;;
78772;SDS011;68111;44.728;11.290;2023-07-30T13:51:47;2.30;;;1.80;;
78772;SDS011;68111;44.728;11.290;2023-07-30T13:54:13;3.50;;;2.20;;
78772;SDS011;68111;44.728;11.290;2023-07-30T13:56:40;4.78;;;1.98;;
78772;SDS011;68111;44.728;11.290;2023-07-30T13:59:07;2.63;;;1.83;;
78772;SDS011;68111;44.728;11.290;2023-07-30T14:01:34;4.63;;;2.47;;
78772;SDS011;68111;44.728;11.290;2023-07-30T14:04:01;4.38;;;2.50;;
78772;SDS011;68111;44.728;11.290;2023-07-30T14:06:28;3.83;;;2.33;;
78772;SDS011;68111;44.728;11.290;2023-07-30T14:08:55;2.72;;;1.80;;
78772;SDS011;68111;44.728;11.290;2023-07-30T14:11:22;5.38;;;2.20;;
78772;SDS011;68111;44.728;11.290;2023-07-30T14:13:48;4.72;;;2.08;;
78772;SDS011;68111;44.728;11.290;2023-07-30T14:16:16;5.00;;;2.20;;
78772;SDS011;68111;44.728;11.290;2023-07-30T14:18:43;4.63;;;2.45;;
78772;SDS011;68111;44.728;11.290;2023-07-30T14:21:10;4.07;;;2.10;;
78772;SDS011;68111;44.728;11.290;2023-07-30T14:23:37;4.07;;;2.38;;
78772;SDS011;68111;44.728;11.290;2023-07-30T14:26:04;4.28;;;2.08;;
78772;SDS011;68111;44.728;11.290;2023-07-30T14:28:31;3.58;;;2.20;;
78772;SDS011;68111;44.728;11.290;2023-07-30T14:30:58;4.43;;;2.20;;
78772;SDS011;68111;44.728;11.290;2023-07-30T14:33:25;3.63;;;2.28;;
78772;SDS011;68111;44.728;11.290;2023-07-30T14:35:52;3.88;;;2.40;;
78772;SDS011;68111;44.728;11.290;2023-07-30T14:38:19;3.15;;;2.20;;
78772;SDS011;68111;44.728;11.290;2023-07-30T14:40:46;5.32;;;2.60;;
78772;SDS011;68111;44.728;11.290;2023-07-30T14:43:12;4.00;;;2.40;;
78772;SDS011;68111;44.728;11.290;2023-07-30T14:45:39;4.97;;;2.40;;
78772;SDS011;68111;44.728;11.290;2023-07-30T14:48:06;4.85;;;2.47;;
78772;SDS011;68111;44.728;11.290;2023-07-30T14:50:32;4.35;;;2.33;;